Time;durP1;ratioP1;P1;durP2;ratioP2;P2;SDS_P1;SDS_P2;PMS_P1;PMS_P2;Temp;Humidity;BMP_temperature;BMP_pressure;BME280_temperature;BME280_humidity;BME280_pressure;Samples;Min_cycle;Max_cycle;Signal;HPM_P1;HPM_P2
2022/11/25 00:02:23;;;;;;;240.03;93.27;;;;;;;;;;6201857;28;20406;-86
2022/11/25 00:05:24;;;;;;;181.33;80.60;;;;;;;;;;6201541;28;20034;-85
2022/11/25 00:08:24;;;;;;;210.95;79.28;;;;;;;;;;6181749;28;20066;-84
2022/11/25 00:11:25;;;;;;;294.53;96.13;;;;;;;;;;6200731;28;20393;-84
2022/11/25 00:14:25;;;;;;;276.27;99.17;;;;;;;;;;6201077;28;20022;-84
2022/11/25 00:17:25;;;;;;;344.20;100.00;;;;;;;;;;6203178;28;20048;-85
2022/11/25 00:20:25;;;;;;;351.27;100.17;;;;;;;;;;6201034;28;20394;-84
2022/11/25 00:23:25;;;;;;;444.90;108.80;;;;;;;;;;6202603;28;20018;-85
2022/11/25 00:26:26;;;;;;;436.27;99.33;;;;;;;;;;6200603;28;20033;-85
2022/11/25 00:29:27;;;;;;;453.70;105.20;;;;;;;;;;6185029;28;20018;-85
2022/11/25 00:32:27;;;;;;;445.47;96.40;;;;;;;;;;6184087;28;20445;-84
2022/11/25 00:35:27;;;;;;;474.13;91.18;;;;;;;;;;6199731;28;20438;-84
2022/11/25 00:38:31;;;;;;;437.97;81.13;;;;;;;;;;6202007;28;20025;-85
2022/11/25 00:44:50;;;;;;;344.50;74.63;;;;;;;;;;6201909;28;20069;-85
2022/11/25 00:47:53;;;;;;;370.03;76.53;;;;;;;;;;6200181;28;20028;-84
2022/11/25 00:50:53;;;;;;;375.23;76.05;;;;;;;;;;6184278;28;20020;-84
2022/11/25 00:53:53;;;;;;;446.45;77.10;;;;;;;;;;6202534;28;20379;-85
2022/11/25 00:56:54;;;;;;;395.48;79.22;;;;;;;;;;6182984;28;20026;-84
2022/11/25 00:59:55;;;;;;;404.97;82.47;;;;;;;;;;6182133;28;20114;-84
2022/11/25 01:02:55;;;;;;;436.63;79.13;;;;;;;;;;6199454;28;20061;-84
2022/11/25 01:05:59;;;;;;;440.63;86.13;;;;;;;;;;6196545;28;20507;-85
2022/11/25 01:09:00;;;;;;;449.17;89.82;;;;;;;;;;6198379;28;20216;-84
2022/11/25 01:12:00;;;;;;;426.10;82.73;;;;;;;;;;6198296;28;20378;-84
2022/11/25 01:15:00;;;;;;;428.33;78.67;;;;;;;;;;6181804;28;20022;-84
2022/11/25 01:18:00;;;;;;;438.85;90.90;;;;;;;;;;6197453;28;20069;-84
2022/11/25 01:21:07;;;;;;;475.77;92.77;;;;;;;;;;6199094;28;20029;-84
2022/11/25 01:24:08;;;;;;;407.73;81.60;;;;;;;;;;6200445;28;20058;-85
2022/11/25 01:27:09;;;;;;;403.00;78.93;;;;;;;;;;6181871;28;20060;-85
2022/11/25 01:30:09;;;;;;;440.20;83.87;;;;;;;;;;6200622;28;20026;-85
2022/11/25 01:33:09;;;;;;;423.80;80.63;;;;;;;;;;6182225;28;20026;-85
2022/11/25 01:36:11;;;;;;;463.40;91.65;;;;;;;;;;6198948;28;20021;-85
2022/11/25 01:39:14;;;;;;;360.05;80.60;;;;;;;;;;6199919;28;20026;-85
2022/11/25 01:42:16;;;;;;;462.38;91.97;;;;;;;;;;6199941;28;20034;-84
2022/11/25 01:45:22;;;;;;;448.85;87.10;;;;;;;;;;6200548;28;20510;-84
2022/11/25 01:48:30;;;;;;;413.80;82.32;;;;;;;;;;6181304;28;20030;-84
2022/11/25 01:51:38;;;;;;;430.35;86.53;;;;;;;;;;6198713;28;20437;-85
2022/11/25 01:54:59;;;;;;;391.05;83.28;;;;;;;;;;6201037;28;20022;-84
2022/11/25 01:58:04;;;;;;;438.98;87.53;;;;;;;;;;6182148;28;20026;-84
2022/11/25 02:01:05;;;;;;;443.17;84.43;;;;;;;;;;6199409;28;20479;-84
2022/11/25 02:04:06;;;;;;;455.87;86.27;;;;;;;;;;6183936;28;20045;-84
2022/11/25 02:07:16;;;;;;;382.80;74.77;;;;;;;;;;6198590;28;20073;-85
2022/11/25 02:10:20;;;;;;;374.13;72.72;;;;;;;;;;6183357;28;20105;-85
2022/11/25 02:13:21;;;;;;;371.63;78.07;;;;;;;;;;6180641;28;20027;-86
2022/11/25 02:16:22;;;;;;;389.80;79.05;;;;;;;;;;6181211;28;20028;-86
2022/11/25 02:19:23;;;;;;;357.03;68.77;;;;;;;;;;6198371;28;20019;-86
2022/11/25 02:22:47;;;;;;;324.77;65.45;;;;;;;;;;6196693;28;20394;-86
2022/11/25 02:25:47;;;;;;;267.52;60.47;;;;;;;;;;6184583;28;20046;-86
2022/11/25 02:28:47;;;;;;;368.07;65.30;;;;;;;;;;6180660;28;20497;-86
2022/11/25 02:31:49;;;;;;;388.83;75.27;;;;;;;;;;6182791;28;20022;-86
2022/11/25 02:34:49;;;;;;;345.75;69.78;;;;;;;;;;6202894;28;20018;-86
2022/11/25 02:37:53;;;;;;;378.20;68.33;;;;;;;;;;6202365;28;20029;-86
2022/11/25 02:40:56;;;;;;;374.30;68.40;;;;;;;;;;6186415;28;20405;-87
2022/11/25 02:43:56;;;;;;;355.50;68.05;;;;;;;;;;6199731;28;20113;-85
2022/11/25 02:46:57;;;;;;;268.53;60.57;;;;;;;;;;6182773;28;20021;-86
2022/11/25 02:49:57;;;;;;;307.87;66.33;;;;;;;;;;6198148;28;20093;-86
2022/11/25 02:52:57;;;;;;;396.55;82.70;;;;;;;;;;6180826;28;20030;-86
2022/11/25 02:55:57;;;;;;;272.93;63.17;;;;;;;;;;6200608;28;20429;-86
2022/11/25 02:58:57;;;;;;;324.63;73.43;;;;;;;;;;6186558;28;20018;-86
2022/11/25 03:01:58;;;;;;;322.43;77.10;;;;;;;;;;6207155;28;20030;-86
2022/11/25 03:04:58;;;;;;;350.20;80.23;;;;;;;;;;6187778;28;20479;-86
2022/11/25 03:07:58;;;;;;;385.17;83.07;;;;;;;;;;6201848;28;20061;-86
2022/11/25 03:10:59;;;;;;;326.13;80.67;;;;;;;;;;6185369;28;20029;-86
2022/11/25 03:13:59;;;;;;;344.15;79.47;;;;;;;;;;6205198;28;20057;-86
2022/11/25 03:16:59;;;;;;;283.20;73.43;;;;;;;;;;6188180;28;20456;-86
2022/11/25 03:19:59;;;;;;;348.60;77.00;;;;;;;;;;6192442;28;20025;-86
2022/11/25 03:23:00;;;;;;;357.70;75.87;;;;;;;;;;6192345;28;20092;-85
2022/11/25 03:26:04;;;;;;;308.03;72.40;;;;;;;;;;6205829;28;20113;-86
2022/11/25 03:29:04;;;;;;;332.55;71.60;;;;;;;;;;6204870;28;20065;-85
2022/11/25 03:32:04;;;;;;;290.33;66.17;;;;;;;;;;6190177;28;20089;-86
2022/11/25 03:35:05;;;;;;;334.17;70.60;;;;;;;;;;6204236;28;20113;-86
2022/11/25 03:38:05;;;;;;;257.63;64.00;;;;;;;;;;6205025;28;20453;-86
2022/11/25 03:41:05;;;;;;;288.53;62.60;;;;;;;;;;6202478;28;20228;-86
2022/11/25 03:44:05;;;;;;;203.13;56.73;;;;;;;;;;6200533;28;20034;-86
2022/11/25 03:47:06;;;;;;;186.73;54.47;;;;;;;;;;6202298;28;20037;-85
2022/11/25 03:50:06;;;;;;;192.47;64.47;;;;;;;;;;6203040;28;20030;-85
2022/11/25 03:53:07;;;;;;;164.90;55.50;;;;;;;;;;6204511;28;20024;-86
2022/11/25 03:56:12;;;;;;;182.47;59.63;;;;;;;;;;6203032;28;20457;-85
2022/11/25 03:59:12;;;;;;;192.23;58.65;;;;;;;;;;6185274;28;20038;-85
2022/11/25 04:02:13;;;;;;;161.00;54.27;;;;;;;;;;6201965;28;20023;-86
2022/11/25 04:05:13;;;;;;;190.40;58.93;;;;;;;;;;6185291;28;20069;-86
2022/11/25 04:08:13;;;;;;;215.55;63.55;;;;;;;;;;6200252;28;20057;-85
2022/11/25 04:11:13;;;;;;;191.73;65.37;;;;;;;;;;6202447;28;20092;-86
2022/11/25 04:14:13;;;;;;;170.77;65.37;;;;;;;;;;6202736;28;20042;-85
2022/11/25 04:17:13;;;;;;;194.13;65.90;;;;;;;;;;6202787;28;20018;-85
2022/11/25 04:20:14;;;;;;;180.50;69.00;;;;;;;;;;6185743;28;20030;-85
2022/11/25 04:23:14;;;;;;;182.30;62.97;;;;;;;;;;6201404;28;20065;-85
2022/11/25 04:26:14;;;;;;;186.90;70.70;;;;;;;;;;6184052;28;20026;-85
2022/11/25 04:29:15;;;;;;;195.63;77.53;;;;;;;;;;6201967;28;20055;-86
2022/11/25 04:32:15;;;;;;;183.73;70.03;;;;;;;;;;6185737;28;20132;-86
2022/11/25 04:35:15;;;;;;;193.10;60.07;;;;;;;;;;6183882;28;20030;-86
2022/11/25 04:38:15;;;;;;;158.90;58.83;;;;;;;;;;6185117;28;20033;-86
2022/11/25 04:41:16;;;;;;;184.90;62.40;;;;;;;;;;6185377;28;20030;-85
2022/11/25 04:44:16;;;;;;;166.38;58.05;;;;;;;;;;6201750;28;20026;-86
2022/11/25 04:47:16;;;;;;;152.90;55.17;;;;;;;;;;6200277;28;20085;-86
2022/11/25 04:50:18;;;;;;;157.43;55.63;;;;;;;;;;6184303;28;20033;-86
2022/11/25 04:53:18;;;;;;;150.73;49.70;;;;;;;;;;6200692;28;20026;-85
2022/11/25 04:56:19;;;;;;;139.50;48.37;;;;;;;;;;6200749;28;20025;-86
2022/11/25 05:02:38;;;;;;;146.07;55.72;;;;;;;;;;6200226;28;20027;-85
2022/11/25 05:05:38;;;;;;;154.43;54.47;;;;;;;;;;6181591;28;20069;-86
2022/11/25 05:08:38;;;;;;;140.40;57.37;;;;;;;;;;6199872;28;20018;-85
2022/11/25 05:11:38;;;;;;;133.55;51.35;;;;;;;;;;6200541;28;20459;-86
2022/11/25 05:14:39;;;;;;;141.33;48.23;;;;;;;;;;6200019;28;20018;-85
2022/11/25 05:17:39;;;;;;;153.33;53.20;;;;;;;;;;6198803;28;20094;-86
2022/11/25 05:20:39;;;;;;;143.60;54.43;;;;;;;;;;6199120;28;20014;-86
2022/11/25 05:23:39;;;;;;;140.45;48.08;;;;;;;;;;6181678;28;20363;-84
2022/11/25 05:26:39;;;;;;;148.03;57.47;;;;;;;;;;6201831;28;20097;-85
2022/11/25 05:29:40;;;;;;;148.07;53.20;;;;;;;;;;6202778;28;20025;-85
2022/11/25 05:32:40;;;;;;;144.33;53.97;;;;;;;;;;6184641;28;20233;-84
2022/11/25 05:35:40;;;;;;;165.83;58.00;;;;;;;;;;6199367;28;20022;-84
2022/11/25 05:38:40;;;;;;;145.38;51.78;;;;;;;;;;6198125;28;20848;-84
2022/11/25 05:41:40;;;;;;;157.27;48.90;;;;;;;;;;6198873;28;20030;-84
2022/11/25 05:44:41;;;;;;;143.17;53.47;;;;;;;;;;6182073;28;20533;-84
2022/11/25 05:47:41;;;;;;;146.20;55.27;;;;;;;;;;6197705;28;20106;-83
2022/11/25 05:50:41;;;;;;;148.55;54.83;;;;;;;;;;6180837;28;20399;-83
2022/11/25 05:53:41;;;;;;;139.35;53.85;;;;;;;;;;6199306;28;20030;-83
2022/11/25 05:56:41;;;;;;;157.07;63.20;;;;;;;;;;6199500;28;20018;-83
2022/11/25 05:59:42;;;;;;;160.45;58.38;;;;;;;;;;6198402;28;20029;-83
2022/11/25 06:02:42;;;;;;;187.60;69.43;;;;;;;;;;6199534;28;20105;-82
2022/11/25 06:05:42;;;;;;;187.63;68.93;;;;;;;;;;6200010;28;20022;-82
2022/11/25 06:08:43;;;;;;;164.30;65.97;;;;;;;;;;6198051;28;20038;-82
2022/11/25 06:11:43;;;;;;;175.60;68.07;;;;;;;;;;6197232;28;20034;-83
2022/11/25 06:14:43;;;;;;;174.67;71.57;;;;;;;;;;6199307;28;20066;-81
2022/11/25 06:17:43;;;;;;;189.50;68.43;;;;;;;;;;6198659;28;20021;-82
2022/11/25 06:20:44;;;;;;;157.17;63.47;;;;;;;;;;6198070;28;20023;-82
2022/11/25 06:23:45;;;;;;;149.53;55.60;;;;;;;;;;6197217;28;20037;-82
2022/11/25 06:26:45;;;;;;;158.70;53.93;;;;;;;;;;6198043;28;20019;-82
2022/11/25 06:29:45;;;;;;;146.27;51.53;;;;;;;;;;6199498;28;21455;-82
2022/11/25 06:32:45;;;;;;;149.48;55.53;;;;;;;;;;6188424;28;20054;-82
2022/11/25 06:35:45;;;;;;;171.70;60.50;;;;;;;;;;6203758;28;20076;-82
2022/11/25 06:38:47;;;;;;;163.90;62.70;;;;;;;;;;6189859;28;20030;-82
2022/11/25 06:41:47;;;;;;;142.50;60.20;;;;;;;;;;6205565;28;20109;-82
2022/11/25 06:44:47;;;;;;;167.38;61.10;;;;;;;;;;6205792;28;20034;-82
2022/11/25 06:47:47;;;;;;;147.17;55.77;;;;;;;;;;6206009;28;20033;-82
2022/11/25 06:50:54;;;;;;;143.63;50.47;;;;;;;;;;6207740;28;20026;-81
2022/11/25 06:53:54;;;;;;;140.45;53.05;;;;;;;;;;6204306;28;20026;-82
2022/11/25 06:56:54;;;;;;;145.73;58.20;;;;;;;;;;6206038;28;20041;-82
2022/11/25 06:59:55;;;;;;;146.00;53.47;;;;;;;;;;6189491;28;20393;-82
2022/11/25 07:02:55;;;;;;;151.20;58.90;;;;;;;;;;6205309;28;20030;-83
2022/11/25 07:05:56;;;;;;;155.93;60.72;;;;;;;;;;6207242;28;20053;-83
2022/11/25 07:08:57;;;;;;;151.82;59.88;;;;;;;;;;6177204;28;20034;-82
2022/11/25 07:11:57;;;;;;;178.97;68.30;;;;;;;;;;6205920;28;20113;-82
2022/11/25 07:14:57;;;;;;;173.40;66.80;;;;;;;;;;6186898;28;20502;-82
2022/11/25 07:17:57;;;;;;;182.88;77.10;;;;;;;;;;6206500;28;20018;-82
2022/11/25 07:21:03;;;;;;;176.07;69.87;;;;;;;;;;6205242;28;20058;-81
2022/11/25 07:24:04;;;;;;;202.52;77.72;;;;;;;;;;6188388;28;20033;-81
2022/11/25 07:27:05;;;;;;;168.48;66.35;;;;;;;;;;6205518;28;20022;-81
2022/11/25 07:30:06;;;;;;;187.80;68.53;;;;;;;;;;6206098;28;20029;-82
2022/11/25 07:33:06;;;;;;;169.20;65.83;;;;;;;;;;6205014;28;20030;-81
2022/11/25 07:36:08;;;;;;;186.17;59.90;;;;;;;;;;6205144;28;20014;-81
2022/11/25 07:39:11;;;;;;;141.25;53.25;;;;;;;;;;6202904;28;20018;-81
2022/11/25 07:42:11;;;;;;;174.32;60.40;;;;;;;;;;6199144;28;20113;-81
2022/11/25 07:45:11;;;;;;;197.07;69.47;;;;;;;;;;6199345;28;20076;-81
2022/11/25 07:48:11;;;;;;;198.73;69.32;;;;;;;;;;6197322;28;20014;-81
2022/11/25 07:51:25;;;;;;;198.97;67.00;;;;;;;;;;6180257;28;20065;-81
2022/11/25 07:54:25;;;;;;;248.13;74.82;;;;;;;;;;6195342;28;20018;-80
2022/11/25 07:57:26;;;;;;;211.27;64.13;;;;;;;;;;6198612;28;20018;-80
2022/11/25 08:00:26;;;;;;;284.93;76.70;;;;;;;;;;6199280;28;20085;-81
2022/11/25 08:03:26;;;;;;;246.20;76.93;;;;;;;;;;6183174;28;20398;-79
2022/11/25 08:06:28;;;;;;;318.80;93.97;;;;;;;;;;6199725;28;20042;-79
2022/11/25 08:09:28;;;;;;;329.00;99.32;;;;;;;;;;6199500;28;20587;-79
2022/11/25 08:12:30;;;;;;;292.23;90.97;;;;;;;;;;6197513;28;20018;-79
2022/11/25 08:15:31;;;;;;;255.75;78.95;;;;;;;;;;6199017;28;20023;-79
2022/11/25 08:18:31;;;;;;;258.67;77.50;;;;;;;;;;6179121;28;20023;-79
2022/11/25 08:21:32;;;;;;;129.03;45.20;;;;;;;;;;6182449;28;20378;-79
2022/11/25 08:24:32;;;;;;;219.65;65.45;;;;;;;;;;6182365;28;20026;-79
2022/11/25 08:27:32;;;;;;;206.28;65.08;;;;;;;;;;6199765;28;20105;-79
2022/11/25 08:30:32;;;;;;;284.73;73.68;;;;;;;;;;6197664;28;20026;-78
2022/11/25 08:33:32;;;;;;;297.83;79.60;;;;;;;;;;6180282;28;20123;-78
2022/11/25 08:36:33;;;;;;;209.37;59.97;;;;;;;;;;6205768;28;20461;-77
2022/11/25 08:39:34;;;;;;;258.47;70.77;;;;;;;;;;6180488;28;20030;-77
2022/11/25 08:42:34;;;;;;;412.77;102.00;;;;;;;;;;6194208;28;20042;-78
2022/11/25 08:45:34;;;;;;;346.23;107.97;;;;;;;;;;6202715;28;20082;-78
2022/11/25 08:48:34;;;;;;;247.63;77.60;;;;;;;;;;6196812;28;20033;-77
2022/11/25 08:51:36;;;;;;;310.27;83.70;;;;;;;;;;6196686;28;20025;-77
2022/11/25 08:54:36;;;;;;;279.52;81.00;;;;;;;;;;6195829;28;20076;-77
2022/11/25 08:57:36;;;;;;;397.43;110.67;;;;;;;;;;6195769;28;20379;-77
2022/11/25 09:00:37;;;;;;;368.30;104.40;;;;;;;;;;6198605;28;20046;-77
2022/11/25 09:03:39;;;;;;;350.00;102.40;;;;;;;;;;6197140;28;20039;-77
2022/11/25 09:06:39;;;;;;;342.30;104.72;;;;;;;;;;6186791;28;20061;-76
2022/11/25 09:09:39;;;;;;;358.10;106.83;;;;;;;;;;6172475;28;20023;-77
2022/11/25 09:12:40;;;;;;;347.88;101.00;;;;;;;;;;6170898;28;20030;-77
2022/11/25 09:15:40;;;;;;;333.07;106.70;;;;;;;;;;6171313;28;20078;-77
2022/11/25 09:18:40;;;;;;;330.33;107.22;;;;;;;;;;6172107;28;20026;-77
2022/11/25 09:21:44;;;;;;;344.07;105.17;;;;;;;;;;6180163;28;20475;-77
2022/11/25 09:24:44;;;;;;;309.20;100.47;;;;;;;;;;6171948;28;20073;-77
2022/11/25 09:27:44;;;;;;;332.93;113.53;;;;;;;;;;6172100;28;20497;-77
2022/11/25 09:30:45;;;;;;;361.83;110.90;;;;;;;;;;6172723;28;20022;-77
2022/11/25 09:33:45;;;;;;;355.50;108.70;;;;;;;;;;6171981;28;20030;-77
2022/11/25 09:36:45;;;;;;;311.50;99.00;;;;;;;;;;6170625;28;20018;-77
2022/11/25 09:39:45;;;;;;;360.63;114.63;;;;;;;;;;6171280;28;20050;-77
2022/11/25 09:49:34;;;;;;;;;;;;;;;;;;6172041;28;20038;-77
2022/11/25 09:52:50;;;;;;;268.58;97.32;;;;;;;;;;6185891;28;19921;-75
2022/11/25 09:55:53;;;;;;;284.23;102.05;;;;;;;;;;6170158;28;20023;-75
2022/11/25 09:59:05;;;;;;;257.88;96.68;;;;;;;;;;6171928;28;20077;-75
2022/11/25 10:02:15;;;;;;;240.23;89.22;;;;;;;;;;6169711;28;20034;-75
2022/11/25 10:05:18;;;;;;;283.45;99.07;;;;;;;;;;6171665;28;20011;-75
2022/11/25 10:08:24;;;;;;;242.70;98.60;;;;;;;;;;6190747;28;20057;-75
2022/11/25 10:11:33;;;;;;;252.52;97.03;;;;;;;;;;6193490;28;20045;-75
2022/11/25 10:14:36;;;;;;;243.00;107.15;;;;;;;;;;6192544;28;20022;-75
2022/11/25 10:17:40;;;;;;;220.95;97.68;;;;;;;;;;6193702;28;20018;-75
2022/11/25 10:20:41;;;;;;;243.82;100.65;;;;;;;;;;6194717;28;20030;-74
2022/11/25 10:23:41;;;;;;;219.80;94.47;;;;;;;;;;6194005;28;20370;-74
2022/11/25 10:26:43;;;;;;;241.37;101.93;;;;;;;;;;6176265;28;20113;-74
2022/11/25 10:29:48;;;;;;;232.95;100.18;;;;;;;;;;6176061;28;20085;-73
2022/11/25 10:32:50;;;;;;;224.18;97.93;;;;;;;;;;6175567;28;20113;-73
2022/11/25 10:35:59;;;;;;;237.15;96.60;;;;;;;;;;6194378;28;21156;-73
2022/11/25 10:39:01;;;;;;;221.18;94.32;;;;;;;;;;6173831;28;20022;-73
2022/11/25 10:42:08;;;;;;;218.88;98.22;;;;;;;;;;6193466;28;20026;-73
2022/11/25 10:45:09;;;;;;;241.80;100.65;;;;;;;;;;6192425;28;20026;-73
2022/11/25 10:48:16;;;;;;;225.97;99.40;;;;;;;;;;6193033;28;20034;-73
2022/11/25 10:51:16;;;;;;;217.43;99.40;;;;;;;;;;6172289;28;20479;-73
2022/11/25 10:54:19;;;;;;;174.57;74.23;;;;;;;;;;6192573;28;20023;-73
2022/11/25 10:57:19;;;;;;;227.80;97.72;;;;;;;;;;6192878;28;20106;-73
2022/11/25 11:00:25;;;;;;;222.53;91.43;;;;;;;;;;6194685;28;20035;-73
2022/11/25 11:03:26;;;;;;;209.75;96.25;;;;;;;;;;6194022;28;20053;-73
2022/11/25 11:06:31;;;;;;;206.50;101.57;;;;;;;;;;6176239;28;20525;-72
2022/11/25 11:09:34;;;;;;;209.07;94.85;;;;;;;;;;6193963;28;20042;-72
2022/11/25 11:12:34;;;;;;;205.18;92.18;;;;;;;;;;6194640;28;20031;-73
2022/11/25 11:15:41;;;;;;;198.47;92.97;;;;;;;;;;6193628;28;20467;-73
2022/11/25 11:18:41;;;;;;;189.35;90.22;;;;;;;;;;6196782;28;20095;-73
2022/11/25 11:21:42;;;;;;;201.67;88.93;;;;;;;;;;6196623;28;20126;-73
2022/11/25 11:24:42;;;;;;;188.83;89.13;;;;;;;;;;6198597;28;20014;-73
2022/11/25 11:27:42;;;;;;;205.77;91.90;;;;;;;;;;6179498;28;20177;-74
2022/11/25 11:30:54;;;;;;;177.50;85.67;;;;;;;;;;6197369;28;20391;-74
2022/11/25 11:34:00;;;;;;;179.32;85.82;;;;;;;;;;6198508;28;20023;-73
2022/11/25 11:37:00;;;;;;;170.07;87.65;;;;;;;;;;6197431;28;20097;-73
2022/11/25 11:40:19;;;;;;;176.82;84.45;;;;;;;;;;6197966;28;20034;-73
2022/11/25 11:43:38;;;;;;;164.00;82.32;;;;;;;;;;6197038;28;20027;-73
2022/11/25 11:46:53;;;;;;;165.13;82.13;;;;;;;;;;6202832;28;20022;-73
2022/11/25 11:50:19;;;;;;;167.60;82.88;;;;;;;;;;6198941;28;20382;-73
2022/11/25 11:53:20;;;;;;;161.40;79.85;;;;;;;;;;6195745;28;20546;-73
2022/11/25 11:56:32;;;;;;;161.63;83.90;;;;;;;;;;6198441;28;20106;-73
2022/11/25 11:59:45;;;;;;;148.05;74.80;;;;;;;;;;6198261;28;20022;-74
2022/11/25 12:02:51;;;;;;;154.48;77.18;;;;;;;;;;6197008;28;20511;-73
2022/11/25 12:05:54;;;;;;;155.88;76.88;;;;;;;;;;6196737;28;20030;-73
2022/11/25 12:09:07;;;;;;;147.15;72.50;;;;;;;;;;6197294;28;20093;-73
2022/11/25 12:12:08;;;;;;;151.70;78.47;;;;;;;;;;6197520;28;20018;-74
2022/11/25 12:15:14;;;;;;;157.30;75.17;;;;;;;;;;6196434;28;20061;-74
2022/11/25 12:18:19;;;;;;;163.65;84.63;;;;;;;;;;6195382;28;20022;-74
2022/11/25 12:21:35;;;;;;;151.68;74.63;;;;;;;;;;6197602;28;20026;-75
2022/11/25 12:24:54;;;;;;;145.55;76.65;;;;;;;;;;6179984;28;20383;-74
2022/11/25 12:28:13;;;;;;;156.63;75.82;;;;;;;;;;6178576;28;20030;-74
2022/11/25 12:31:27;;;;;;;142.98;75.85;;;;;;;;;;6197081;28;20026;-74
2022/11/25 12:34:34;;;;;;;139.80;73.82;;;;;;;;;;6196554;28;20031;-75
2022/11/25 12:37:43;;;;;;;149.82;71.65;;;;;;;;;;6196135;28;20022;-74
2022/11/25 12:40:52;;;;;;;136.13;71.07;;;;;;;;;;6195508;28;20129;-75
2022/11/25 12:43:59;;;;;;;149.25;71.40;;;;;;;;;;6193391;28;20030;-74
2022/11/25 12:47:00;;;;;;;142.00;70.50;;;;;;;;;;6178119;28;20501;-74
2022/11/25 12:50:00;;;;;;;136.52;68.85;;;;;;;;;;6196644;28;20435;-74
2022/11/25 12:53:06;;;;;;;144.90;68.00;;;;;;;;;;6196382;28;20061;-75
2022/11/25 12:56:13;;;;;;;145.75;71.38;;;;;;;;;;6193246;28;20026;-74
2022/11/25 12:59:33;;;;;;;133.55;69.68;;;;;;;;;;6195355;28;20422;-74
2022/11/25 13:02:34;;;;;;;129.57;65.13;;;;;;;;;;6149327;28;20062;-74
2022/11/25 13:05:52;;;;;;;129.20;65.13;;;;;;;;;;6196467;28;20080;-74
2022/11/25 13:08:58;;;;;;;154.00;71.88;;;;;;;;;;6194739;28;20038;-74
2022/11/25 13:12:02;;;;;;;164.32;77.57;;;;;;;;;;6196487;28;20394;-74
2022/11/25 13:15:11;;;;;;;184.70;83.25;;;;;;;;;;6178918;28;20018;-74
2022/11/25 13:18:13;;;;;;;168.45;79.15;;;;;;;;;;6192706;28;20540;-74
2022/11/25 13:21:13;;;;;;;;;;;;;;;;;;6196227;28;20478;-74
2022/11/25 13:24:33;;;;;;;176.02;80.57;;;;;;;;;;6190863;28;20384;-74
2022/11/25 13:27:38;;;;;;;178.38;86.22;;;;;;;;;;6193618;28;20026;-74
2022/11/25 13:30:39;;;;;;;197.35;89.75;;;;;;;;;;6193781;28;20391;-74
2022/11/25 13:33:42;;;;;;;165.27;77.50;;;;;;;;;;6191705;28;20057;-74
2022/11/25 13:36:47;;;;;;;148.75;70.15;;;;;;;;;;6195434;28;20028;-74
2022/11/25 13:39:47;;;;;;;150.30;65.53;;;;;;;;;;6195796;28;20061;-74
2022/11/25 13:42:47;;;;;;;147.85;64.28;;;;;;;;;;6193477;28;20036;-74
2022/11/25 13:45:48;;;;;;;145.43;64.97;;;;;;;;;;6192130;28;20019;-74
2022/11/25 13:48:48;;;;;;;125.77;61.93;;;;;;;;;;6192835;28;20044;-74
2022/11/25 13:51:49;;;;;;;133.90;62.93;;;;;;;;;;6192222;28;20036;-74
2022/11/25 13:54:53;;;;;;;128.25;55.72;;;;;;;;;;6174303;28;20026;-74
2022/11/25 13:58:02;;;;;;;127.78;53.92;;;;;;;;;;6193987;28;20033;-74
2022/11/25 14:01:23;;;;;;;132.90;61.17;;;;;;;;;;6204432;28;20018;-74
2022/11/25 14:04:41;;;;;;;117.45;53.13;;;;;;;;;;6194076;28;20030;-74
2022/11/25 14:07:41;;;;;;;127.75;57.80;;;;;;;;;;6192469;28;20456;-73
2022/11/25 14:10:53;;;;;;;126.95;56.20;;;;;;;;;;6194457;28;20048;-74
2022/11/25 14:14:12;;;;;;;116.80;51.33;;;;;;;;;;6194314;28;20057;-75
2022/11/25 14:17:26;;;;;;;130.82;57.38;;;;;;;;;;6190847;28;20415;-73
2022/11/25 14:20:29;;;;;;;125.03;52.22;;;;;;;;;;6191458;28;20368;-73
2022/11/25 14:23:43;;;;;;;106.82;51.50;;;;;;;;;;6197637;28;20042;-73
2022/11/25 14:26:44;;;;;;;124.45;52.92;;;;;;;;;;6191655;28;20026;-74
2022/11/25 14:29:53;;;;;;;111.20;48.23;;;;;;;;;;6172681;28;20042;-73
2022/11/25 14:32:58;;;;;;;118.07;51.03;;;;;;;;;;6190055;28;20109;-74
2022/11/25 14:36:10;;;;;;;122.35;55.38;;;;;;;;;;6191341;28;20568;-73
2022/11/25 14:39:29;;;;;;;129.18;53.35;;;;;;;;;;6193657;28;20014;-73
2022/11/25 14:42:35;;;;;;;145.88;56.58;;;;;;;;;;6194138;28;20557;-73
2022/11/25 14:45:35;;;;;;;211.95;53.83;;;;;;;;;;6193102;28;20394;-73
2022/11/25 14:48:35;;;;;;;143.73;58.27;;;;;;;;;;6194461;28;20033;-74
2022/11/25 14:51:37;;;;;;;111.70;47.73;;;;;;;;;;6178859;28;20018;-74
2022/11/25 14:54:41;;;;;;;160.23;59.83;;;;;;;;;;6179655;28;20030;-74
2022/11/25 14:57:43;;;;;;;195.80;83.20;;;;;;;;;;6199013;28;20449;-74
2022/11/25 15:00:50;;;;;;;187.85;67.15;;;;;;;;;;6197584;28;20030;-73
2022/11/25 15:03:59;;;;;;;130.93;53.25;;;;;;;;;;6199017;28;20030;-73
2022/11/25 15:07:02;;;;;;;195.50;58.08;;;;;;;;;;6196338;28;20072;-73
2022/11/25 15:10:02;;;;;;;211.15;56.53;;;;;;;;;;6199454;28;20038;-73
2022/11/25 15:13:18;;;;;;;209.67;57.27;;;;;;;;;;6180642;28;20466;-74
2022/11/25 15:16:19;;;;;;;303.58;59.90;;;;;;;;;;6196166;28;20402;-73
2022/11/25 15:19:21;;;;;;;153.25;62.15;;;;;;;;;;6195602;28;20026;-73
2022/11/25 15:22:22;;;;;;;235.13;59.15;;;;;;;;;;6200303;28;20094;-74
2022/11/25 15:25:22;;;;;;;369.60;71.63;;;;;;;;;;6198740;28;20049;-74
2022/11/25 15:28:23;;;;;;;164.30;57.87;;;;;;;;;;6197424;28;20018;-73
2022/11/25 15:31:33;;;;;;;313.02;67.20;;;;;;;;;;6179789;28;20022;-74
2022/11/25 15:34:33;;;;;;;185.55;58.90;;;;;;;;;;6181176;28;20018;-74
2022/11/25 15:37:34;;;;;;;161.27;54.43;;;;;;;;;;6196027;28;20037;-74
2022/11/25 15:40:35;;;;;;;153.35;56.95;;;;;;;;;;6176794;28;20089;-74
2022/11/25 15:43:37;;;;;;;338.00;68.72;;;;;;;;;;6196711;28;20426;-74
2022/11/25 15:46:37;;;;;;;311.30;74.07;;;;;;;;;;6195974;28;20030;-73
2022/11/25 15:49:38;;;;;;;438.40;87.97;;;;;;;;;;6196964;28;20030;-74
2022/11/25 15:52:39;;;;;;;196.23;55.33;;;;;;;;;;6197032;28;20260;-74
2022/11/25 15:55:39;;;;;;;201.63;57.75;;;;;;;;;;6197901;28;20078;-74
2022/11/25 15:58:40;;;;;;;452.50;67.07;;;;;;;;;;6197833;28;20026;-74
2022/11/25 16:01:41;;;;;;;268.73;63.20;;;;;;;;;;6196864;28;20022;-74
2022/11/25 16:04:41;;;;;;;426.23;67.37;;;;;;;;;;6177915;28;20022;-74
2022/11/25 16:07:51;;;;;;;414.63;64.50;;;;;;;;;;6196399;28;20525;-74
2022/11/25 16:10:52;;;;;;;335.00;57.53;;;;;;;;;;6197724;28;20497;-74
2022/11/25 16:13:53;;;;;;;384.55;62.83;;;;;;;;;;6180387;28;20027;-74
2022/11/25 16:17:00;;;;;;;391.23;61.43;;;;;;;;;;6197528;28;20434;-74
2022/11/25 16:20:01;;;;;;;314.65;59.13;;;;;;;;;;6180629;28;20037;-74
2022/11/25 16:23:06;;;;;;;216.23;62.27;;;;;;;;;;6187272;28;20022;-74
2022/11/25 16:26:13;;;;;;;195.35;54.63;;;;;;;;;;6175517;28;20118;-74
2022/11/25 16:29:15;;;;;;;303.65;61.53;;;;;;;;;;6173875;28;20023;-74
2022/11/25 16:32:16;;;;;;;183.40;55.28;;;;;;;;;;6194422;28;20023;-74
2022/11/25 16:35:20;;;;;;;215.93;59.75;;;;;;;;;;6193877;28;20149;-74
2022/11/25 16:38:20;;;;;;;396.98;72.30;;;;;;;;;;6193534;28;20022;-74
2022/11/25 16:41:24;;;;;;;393.13;68.37;;;;;;;;;;6191835;28;20029;-74
2022/11/25 16:44:25;;;;;;;359.27;71.85;;;;;;;;;;6176231;28;20015;-74
2022/11/25 16:47:26;;;;;;;210.13;54.22;;;;;;;;;;6193435;28;20026;-74
2022/11/25 16:50:26;;;;;;;234.53;49.13;;;;;;;;;;6190782;28;20053;-73
2022/11/25 16:53:26;;;;;;;334.17;59.63;;;;;;;;;;6185640;28;20100;-75
2022/11/25 16:56:27;;;;;;;287.88;55.58;;;;;;;;;;6196056;28;20064;-74
2022/11/25 16:59:33;;;;;;;246.60;51.63;;;;;;;;;;6193964;28;20029;-73
2022/11/25 17:02:34;;;;;;;219.20;50.00;;;;;;;;;;6195298;28;20064;-74
2022/11/25 17:05:34;;;;;;;267.80;51.77;;;;;;;;;;6195667;28;20052;-74
2022/11/25 17:08:35;;;;;;;344.67;58.37;;;;;;;;;;6194016;28;20070;-73
2022/11/25 17:11:40;;;;;;;357.35;68.78;;;;;;;;;;6191608;28;20030;-74
2022/11/25 17:14:40;;;;;;;290.58;65.03;;;;;;;;;;6194046;28;20378;-73
2022/11/25 17:17:41;;;;;;;185.93;67.80;;;;;;;;;;6195284;28;20467;-73
2022/11/25 17:20:41;;;;;;;179.03;61.23;;;;;;;;;;6192931;28;20018;-73
2022/11/25 17:23:42;;;;;;;173.43;70.17;;;;;;;;;;6194475;28;20018;-74
2022/11/25 17:26:44;;;;;;;246.48;56.53;;;;;;;;;;6194267;28;20018;-73
2022/11/25 17:29:44;;;;;;;313.80;83.22;;;;;;;;;;6195438;28;20018;-73
2022/11/25 17:32:45;;;;;;;287.43;82.00;;;;;;;;;;6192528;28;20033;-73
2022/11/25 17:35:45;;;;;;;242.67;84.30;;;;;;;;;;6195072;28;20018;-74
2022/11/25 17:38:45;;;;;;;238.70;81.72;;;;;;;;;;6194336;28;20025;-74
2022/11/25 17:41:49;;;;;;;215.33;71.97;;;;;;;;;;6195244;28;20021;-73